createdAt,value
2018-10-16T00:00:38.783Z,100160.58
2018-10-16T00:04:45.778Z,100151.21
2018-10-16T00:08:52.790Z,100158.50
2018-10-16T00:12:59.825Z,100162.45
2018-10-16T00:17:06.886Z,100167.45
2018-10-16T00:21:13.945Z,100163.20
2018-10-16T00:25:20.979Z,100160.39
2018-10-16T00:29:28.018Z,100154.74
2018-10-16T00:33:35.058Z,100162.41
2018-10-16T00:37:42.092Z,100165.22
2018-10-16T00:41:56.516Z,100166.45
2018-10-16T00:46:03.632Z,100167.27
2018-10-16T00:50:10.909Z,100173.55
2018-10-16T00:54:17.977Z,100176.56
2018-10-16T00:58:25.001Z,100178.38
2018-10-16T01:02:32.018Z,100178.45
2018-10-16T01:06:39.484Z,100191.43
2018-10-16T01:10:46.516Z,100195.89
2018-10-16T01:14:53.523Z,100195.89
2018-10-16T01:19:00.537Z,100200.79
2018-10-16T01:23:07.713Z,100210.25
2018-10-16T01:27:14.750Z,100215.88
2018-10-16T01:31:21.771Z,100218.35
2018-10-16T01:35:28.781Z,100228.60
2018-10-16T01:39:35.772Z,100233.05
2018-10-16T01:43:42.784Z,100233.19
2018-10-16T01:47:49.823Z,100234.50
2018-10-16T01:51:56.848Z,100226.11
2018-10-16T01:56:03.848Z,100226.89
2018-10-16T02:00:11.966Z,100218.55
2018-10-16T02:04:18.984Z,100215.92
2018-10-16T02:08:26.013Z,100229.73
2018-10-16T02:12:33.023Z,100230.76
2018-10-16T02:16:40.021Z,100230.25
2018-10-16T02:20:47.010Z,100239.16
2018-10-16T02:24:53.990Z,100241.84
2018-10-16T02:29:00.966Z,100242.03
2018-10-16T02:33:08.149Z,100247.47
2018-10-16T02:37:15.076Z,100245.87
2018-10-16T02:41:22.169Z,100248.70
2018-10-16T02:45:29.192Z,100243.59
2018-10-16T02:49:36.243Z,100245.33
2018-10-16T02:53:43.257Z,100246.00
2018-10-16T02:57:50.256Z,100246.34
2018-10-16T03:01:57.310Z,100257.50
2018-10-16T03:06:04.372Z,100256.69
2018-10-16T03:10:11.381Z,100259.02
2018-10-16T03:14:18.404Z,100255.22
2018-10-16T03:18:25.422Z,100256.83
2018-10-16T03:22:32.475Z,100258.58
2018-10-16T03:26:39.966Z,100262.61
2018-10-16T03:30:46.957Z,100268.75
2018-10-16T03:34:54.001Z,100277.04
2018-10-16T03:39:01.033Z,100273.97
2018-10-16T03:43:08.278Z,100275.95
2018-10-16T03:47:15.326Z,100286.55
2018-10-16T03:51:22.375Z,100290.41
2018-10-16T03:55:29.415Z,100290.41
2018-10-16T03:59:36.494Z,100284.84
2018-10-16T04:03:43.506Z,100287.83
2018-10-16T04:07:50.510Z,100284.84
2018-10-16T04:11:57.551Z,100287.87
2018-10-16T04:16:04.564Z,100290.75
2018-10-16T04:20:11.655Z,100297.75
2018-10-16T04:24:18.596Z,100304.43
2018-10-16T04:28:25.630Z,100311.14
2018-10-16T04:32:32.650Z,100316.62
2018-10-16T04:36:39.751Z,100313.41
2018-10-16T04:40:46.755Z,100317.08
2018-10-16T04:44:53.787Z,100320.20
2018-10-16T04:49:00.763Z,100317.31
2018-10-16T04:53:08.163Z,100314.33
2018-10-16T04:57:15.233Z,100316.98
2018-10-16T05:01:22.314Z,100321.09
2018-10-16T05:05:29.390Z,100320.59
2018-10-16T05:09:36.444Z,100329.89
2018-10-16T05:13:43.472Z,100322.40
2018-10-16T05:17:50.532Z,100321.50
2018-10-16T05:21:57.580Z,100327.44
2018-10-16T05:26:04.915Z,100327.27
2018-10-16T05:30:12.135Z,100328.91
2018-10-16T05:34:19.257Z,100330.83
2018-10-16T05:38:26.305Z,100348.52
2018-10-16T05:42:33.372Z,100346.95
2018-10-16T05:46:40.397Z,100346.58
2018-10-16T05:50:47.438Z,100354.55
2018-10-16T05:54:55.050Z,100354.55
2018-10-16T05:59:02.128Z,100363.98
2018-10-16T06:03:09.198Z,100356.61
2018-10-16T06:07:16.255Z,100350.70
2018-10-16T06:11:23.306Z,100345.19
2018-10-16T06:15:30.364Z,100353.66
2018-10-16T06:19:37.497Z,100359.91
2018-10-16T06:23:44.525Z,100362.81
2018-10-16T06:27:51.580Z,100369.42
2018-10-16T06:31:58.594Z,100376.61
2018-10-16T06:36:05.689Z,100374.08
2018-10-16T06:40:12.722Z,100379.83
2018-10-16T06:44:19.848Z,100378.09
2018-10-16T06:48:27.009Z,100385.69
2018-10-16T06:52:33.863Z,100383.50
2018-10-16T06:56:40.880Z,100388.05
2018-10-16T07:00:48.022Z,100399.63
2018-10-16T07:04:54.949Z,100396.12
2018-10-16T07:09:01.952Z,100404.33
2018-10-16T07:13:09.080Z,100406.69
2018-10-16T07:17:16.017Z,100409.77
2018-10-16T07:21:23.207Z,100407.56
2018-10-16T07:25:30.093Z,100412.73
2018-10-16T07:29:37.437Z,100413.42
2018-10-16T07:33:44.469Z,100416.29
2018-10-16T07:37:51.518Z,100419.61
2018-10-16T07:41:58.498Z,100423.94
2018-10-16T07:46:05.636Z,100426.11
2018-10-16T07:50:13.616Z,100399.14
2018-10-16T07:54:20.752Z,100426.00
2018-10-16T07:58:27.749Z,100428.23
2018-10-16T08:02:34.785Z,100426.54
2018-10-16T08:06:41.790Z,100426.54
2018-10-16T08:10:48.818Z,100428.67
2018-10-16T08:14:55.841Z,100430.50
2018-10-16T08:19:02.901Z,100430.78
2018-10-16T08:23:09.948Z,100426.00
2018-10-16T08:27:16.953Z,100414.44
2018-10-16T08:31:23.990Z,100418.47
2018-10-16T08:35:31.123Z,100423.29
2018-10-16T08:39:41.485Z,100420.97
2018-10-16T08:44:33.213Z,100426.77
2018-10-16T08:49:34.256Z,100425.20
2018-10-16T08:53:41.291Z,100427.45
2018-10-16T08:57:48.429Z,100429.95
2018-10-16T09:01:55.499Z,100426.12
2018-10-16T09:06:02.591Z,100426.81
2018-10-16T09:10:09.685Z,100420.02
2018-10-16T09:14:17.282Z,100427.95
2018-10-16T09:18:24.303Z,100423.79
2018-10-16T09:22:31.929Z,100424.45
2018-10-16T09:26:38.952Z,100427.13
2018-10-16T09:30:46.084Z,100423.66
2018-10-16T09:34:53.189Z,100419.95
2018-10-16T09:39:00.303Z,100415.59
2018-10-16T09:43:07.415Z,100410.91
2018-10-16T09:47:14.466Z,100407.38
2018-10-16T09:51:21.519Z,100412.06
2018-10-16T09:55:28.573Z,100414.56
2018-10-16T09:59:35.597Z,100411.50
2018-10-16T10:03:42.621Z,100425.25
2018-10-16T10:07:49.660Z,100420.93
2018-10-16T10:11:56.685Z,100412.23
2018-10-16T10:16:03.720Z,100414.40
2018-10-16T10:20:11.198Z,100411.38
2018-10-16T10:24:18.251Z,100409.52
2018-10-16T10:28:25.276Z,100404.94
2018-10-16T10:32:32.569Z,100405.62
2018-10-16T10:36:39.566Z,100397.09
2018-10-16T10:40:46.623Z,100396.34
2018-10-16T10:44:53.656Z,100389.52
2018-10-16T10:49:00.670Z,100388.58
2018-10-16T10:53:07.740Z,100386.80
2018-10-16T10:57:14.846Z,100379.43
2018-10-16T11:01:21.875Z,100376.63
2018-10-16T11:05:29.194Z,100378.56
2018-10-16T11:09:36.716Z,100376.28
2018-10-16T11:13:43.743Z,100362.94
2018-10-16T11:17:51.227Z,100365.72
2018-10-16T11:21:58.272Z,100354.84
2018-10-16T11:26:05.280Z,100355.34
2018-10-16T11:30:16.926Z,100357.97
2018-10-16T11:34:23.949Z,100344.57
2018-10-16T11:38:31.011Z,100344.03
2018-10-16T11:42:38.045Z,100337.33
2018-10-16T11:46:45.044Z,100331.57
2018-10-16T11:50:52.052Z,100330.03
2018-10-16T11:54:59.064Z,100328.80
2018-10-16T11:59:06.320Z,100325.40
2018-10-16T12:03:13.304Z,100329.44
2018-10-16T12:07:20.294Z,100325.92
2018-10-16T12:11:27.370Z,100319.48
2018-10-16T12:15:34.381Z,100326.43
2018-10-16T12:19:44.999Z,100319.94
2018-10-16T12:23:52.284Z,100317.88
2018-10-16T12:27:59.592Z,100320.00
2018-10-16T12:32:07.048Z,100313.08
2018-10-16T12:36:14.289Z,100314.06
2018-10-16T12:40:21.531Z,100314.89
2018-10-16T12:44:28.774Z,100313.61
2018-10-16T12:48:36.083Z,100317.27
2018-10-16T12:52:43.359Z,100323.00
2018-10-16T12:56:50.710Z,100319.02
2018-10-16T13:00:57.928Z,100321.45
2018-10-16T13:05:05.181Z,100322.51
2018-10-16T13:09:13.388Z,100317.81
2018-10-16T13:13:20.637Z,100308.16
2018-10-16T13:17:27.869Z,100320.86
2018-10-16T13:21:34.936Z,100316.56
2018-10-16T13:25:42.013Z,100313.03
2018-10-16T13:29:49.105Z,100313.50
2018-10-16T13:33:56.244Z,100313.58
2018-10-16T13:38:03.169Z,100311.19
2018-10-16T13:42:10.653Z,100304.59
2018-10-16T13:46:17.686Z,100308.61
2018-10-16T13:50:24.724Z,100308.88
2018-10-16T13:54:31.747Z,100313.27
2018-10-16T13:58:38.775Z,100315.32
2018-10-16T14:02:46.932Z,100315.72
2018-10-16T14:06:53.986Z,100316.06
2018-10-16T14:11:01.031Z,100313.02
2018-10-16T14:15:08.437Z,100322.64
2018-10-16T14:19:15.465Z,100321.17
2018-10-16T14:23:22.537Z,100315.69
2018-10-16T14:27:29.647Z,100318.69
2018-10-16T14:31:38.082Z,100319.80
2018-10-16T14:35:45.286Z,100320.38
2018-10-16T14:39:52.356Z,100314.73
2018-10-16T14:43:59.355Z,100312.08
2018-10-16T14:48:06.458Z,100311.85
2018-10-16T14:52:13.461Z,100312.98
2018-10-16T14:56:20.427Z,100318.28
2018-10-16T15:00:27.427Z,100313.77
2018-10-16T15:04:34.669Z,100310.00
2018-10-16T15:08:41.689Z,100309.67
2018-10-16T15:16:55.665Z,100310.97
2018-10-16T15:21:03.683Z,100319.41
2018-10-16T15:25:11.719Z,100311.86
2018-10-16T15:29:18.796Z,100315.66
2018-10-16T15:33:25.912Z,100314.50
2018-10-16T15:37:33.042Z,100317.20
2018-10-16T15:41:40.135Z,100317.45
2018-10-16T15:45:47.166Z,100313.32
2018-10-16T15:49:54.198Z,100314.58
2018-10-16T15:54:01.341Z,100319.38
2018-10-16T15:58:08.940Z,100324.36
2018-10-16T16:02:16.094Z,100327.27
2018-10-16T16:06:23.061Z,100329.64
2018-10-16T16:10:30.126Z,100341.34
2018-10-16T16:14:37.266Z,100337.61
2018-10-16T16:18:44.312Z,100349.67
2018-10-16T16:22:51.360Z,100352.95
2018-10-16T16:26:58.480Z,100358.09
2018-10-16T16:31:05.416Z,100362.70
2018-10-16T16:35:12.499Z,100366.87
2018-10-16T16:39:19.485Z,100363.42
2018-10-16T16:43:26.514Z,100363.06
2018-10-16T16:47:33.537Z,100370.48
2018-10-16T16:51:40.660Z,100367.95
2018-10-16T16:55:47.818Z,100372.49
2018-10-16T16:59:54.821Z,100373.88
2018-10-16T17:04:01.866Z,100378.30
2018-10-16T17:08:08.977Z,100377.27
2018-10-16T17:12:15.895Z,100375.34
2018-10-16T17:16:22.968Z,100381.88
2018-10-16T17:20:29.979Z,100390.77
2018-10-16T17:24:37.070Z,100396.95
2018-10-16T17:28:44.122Z,100390.87
2018-10-16T17:32:51.223Z,100393.41
2018-10-16T17:36:58.262Z,100398.02
2018-10-16T17:41:05.347Z,100401.67
2018-10-16T17:45:13.766Z,100403.83
2018-10-16T17:49:20.842Z,100406.25
2018-10-16T17:53:27.953Z,100404.44
2018-10-16T18:01:42.190Z,100408.50
2018-10-16T18:05:49.444Z,100415.47
2018-10-16T18:09:57.640Z,100415.28
2018-10-16T18:14:04.661Z,100418.31
2018-10-16T18:18:11.752Z,100419.09
2018-10-16T18:22:18.757Z,100409.89
2018-10-16T18:26:25.777Z,100416.60
2018-10-16T18:30:33.860Z,100420.75
2018-10-16T18:34:40.883Z,100420.28
2018-10-16T18:38:47.938Z,100422.49
2018-10-16T18:42:54.980Z,100426.55
2018-10-16T18:47:02.007Z,100423.23
2018-10-16T18:51:09.618Z,100425.78
2018-10-16T18:55:16.791Z,100420.95
2018-10-16T18:59:23.817Z,100422.99
2018-10-16T19:03:30.879Z,100421.05
2018-10-16T19:07:38.070Z,100421.25
2018-10-16T19:11:45.172Z,100425.09
2018-10-16T19:15:52.238Z,100427.16
2018-10-16T19:19:59.374Z,100421.11
2018-10-16T19:24:06.455Z,100424.57
2018-10-16T19:28:13.542Z,100426.39
2018-10-16T19:32:20.591Z,100435.94
2018-10-16T19:36:27.639Z,100443.05
2018-10-16T19:40:34.670Z,100437.51
2018-10-16T19:44:41.885Z,100433.85
2018-10-16T19:48:48.861Z,100438.73
2018-10-16T19:52:55.892Z,100429.42
2018-10-16T19:57:03.060Z,100432.11
2018-10-16T20:01:10.018Z,100434.13
2018-10-16T20:05:17.049Z,100441.13
2018-10-16T20:09:24.119Z,100439.97
2018-10-16T20:13:32.024Z,100447.35
2018-10-16T20:17:39.905Z,100457.95
2018-10-16T20:21:47.065Z,100460.13
2018-10-16T20:25:54.092Z,100466.17
2018-10-16T20:30:01.426Z,100454.30
2018-10-16T20:34:08.793Z,100469.55
2018-10-16T20:38:16.158Z,100468.75
2018-10-16T20:42:23.438Z,100463.05
2018-10-16T20:46:30.561Z,100460.69
2018-10-16T20:50:37.873Z,100456.85
2018-10-16T20:54:44.983Z,100451.36
2018-10-16T20:58:52.173Z,100453.55
2018-10-16T21:02:59.117Z,100455.23
2018-10-16T21:07:07.280Z,100454.53
2018-10-16T21:11:15.304Z,100454.39
2018-10-16T21:15:22.759Z,100456.56
2018-10-16T21:19:33.233Z,100469.12
2018-10-16T21:23:41.709Z,100470.09
2018-10-16T21:27:49.007Z,100472.96
2018-10-16T21:32:05.648Z,100477.80
2018-10-16T21:36:12.883Z,100479.95
2018-10-16T21:40:20.274Z,100470.77
2018-10-16T21:44:27.937Z,100477.11
2018-10-16T21:48:35.133Z,100464.73
2018-10-16T21:52:43.459Z,100468.57
2018-10-16T21:56:51.050Z,100468.41
2018-10-16T22:01:13.934Z,100465.73
2018-10-16T22:05:24.536Z,100465.07
2018-10-16T22:09:31.573Z,100463.54
2018-10-16T22:13:38.655Z,100468.31
2018-10-16T22:17:45.678Z,100458.45
2018-10-16T22:21:52.694Z,100458.72
2018-10-16T22:25:59.726Z,100456.05
2018-10-16T22:30:07.375Z,100456.37
2018-10-16T22:34:14.358Z,100458.49
2018-10-16T22:38:21.371Z,100466.81
2018-10-16T22:42:28.484Z,100465.83
2018-10-16T22:46:35.677Z,100473.30
2018-10-16T22:50:42.711Z,100470.97
2018-10-16T22:54:49.755Z,100463.06
2018-10-16T22:58:56.822Z,100460.89
2018-10-16T23:03:03.854Z,100459.09
2018-10-16T23:07:10.974Z,100452.44
2018-10-16T23:11:18.063Z,100452.44
2018-10-16T23:15:25.003Z,100447.56
2018-10-16T23:19:32.025Z,100440.08
2018-10-16T23:23:39.069Z,100439.37
2018-10-16T23:27:46.117Z,100446.00
2018-10-16T23:31:53.128Z,100447.14
2018-10-16T23:36:00.176Z,100443.50
2018-10-16T23:40:07.734Z,100446.43
2018-10-16T23:44:14.799Z,100442.20
2018-10-16T23:48:21.819Z,100445.19
2018-10-16T23:52:28.801Z,100441.35
2018-10-16T23:56:35.872Z,100443.20
